Time;durP1;ratioP1;P1;durP2;ratioP2;P2;SDS_P1;SDS_P2;PMS_P1;PMS_P2;Temp;Humidity;BMP_temperature;BMP_pressure;BME280_temperature;BME280_humidity;BME280_pressure;Samples;Min_cycle;Max_cycle;Signal;HPM_P1;HPM_P2
2022/04/28 00:00:08;;;;;;;1.33;0.73;;;;;;;10.55;72.87;102082.03;5049710;28;20036;-69
2022/04/28 00:02:34;;;;;;;2.75;1.08;;;;;;;10.53;72.93;102086.94;5048882;28;20406;-70
2022/04/28 00:05:01;;;;;;;0.70;0.70;;;;;;;10.48;73.29;102082.50;5027888;28;20017;-70
2022/04/28 00:07:27;;;;;;;4.13;1.00;;;;;;;10.44;73.68;102089.63;5047345;28;20043;-70
2022/04/28 00:09:52;;;;;;;3.78;1.13;;;;;;;10.43;73.46;102092.66;5050059;28;20028;-69
2022/04/28 00:12:18;;;;;;;3.08;0.88;;;;;;;10.40;73.30;102083.28;5049586;28;20029;-70
2022/04/28 00:14:43;;;;;;;4.55;0.85;;;;;;;10.34;74.00;102089.16;5049964;28;20052;-69
2022/04/28 00:17:10;;;;;;;0.40;0.32;;;;;;;10.31;73.74;102087.91;5049696;28;20048;-69
2022/04/28 00:19:36;;;;;;;0.70;0.70;;;;;;;10.32;74.17;102094.06;5025175;28;20478;-69
2022/04/28 00:22:01;;;;;;;0.95;0.82;;;;;;;10.30;74.02;102088.22;5038685;28;20047;-70
2022/04/28 00:24:26;;;;;;;1.58;0.68;;;;;;;10.25;74.07;102083.78;5050400;28;20060;-69
2022/04/28 00:26:52;;;;;;;1.85;1.45;;;;;;;10.26;74.12;102084.59;5047805;28;20064;-69
2022/04/28 00:29:18;;;;;;;2.30;1.23;;;;;;;10.23;74.35;102093.28;5048201;28;20116;-70
2022/04/28 00:31:44;;;;;;;1.27;0.60;;;;;;;10.11;74.76;102085.03;5041051;28;20045;-70
2022/04/28 00:34:09;;;;;;;0.73;0.70;;;;;;;10.12;75.36;102087.44;5023776;28;20036;-70
2022/04/28 00:36:35;;;;;;;4.88;0.88;;;;;;;10.14;74.86;102079.81;5031533;28;20120;-69
2022/04/28 00:39:00;;;;;;;1.27;0.80;;;;;;;10.05;75.21;102076.28;5049612;28;20515;-70
2022/04/28 00:41:25;;;;;;;0.95;0.77;;;;;;;10.04;75.49;102091.63;5028475;28;20032;-70
2022/04/28 00:43:53;;;;;;;1.90;1.10;;;;;;;10.03;75.51;102097.34;5037368;28;20025;-69
2022/04/28 00:46:20;;;;;;;0.60;0.60;;;;;;;9.95;75.83;102088.16;5049331;28;20025;-70
2022/04/28 00:51:32;;;;;;;1.17;0.90;;;;;;;9.95;75.70;102092.72;5029894;28;20041;-70
2022/04/28 00:53:59;;;;;;;3.72;1.30;;;;;;;9.93;76.08;102092.25;5033402;28;20036;-69
2022/04/28 00:56:26;;;;;;;1.02;0.68;;;;;;;9.94;75.87;102093.84;5052645;28;20071;-70
2022/04/28 00:58:51;;;;;;;0.98;0.80;;;;;;;9.88;75.74;102085.16;5034938;28;20040;-69
2022/04/28 01:01:17;;;;;;;0.95;0.50;;;;;;;9.86;76.11;102090.03;5025830;28;20033;-70
2022/04/28 01:03:46;;;;;;;1.60;0.88;;;;;;;9.81;76.12;102095.56;5034912;28;20037;-70
2022/04/28 01:06:13;;;;;;;2.38;0.95;;;;;;;9.71;76.06;102089.69;5035845;28;20033;-69
2022/04/28 01:08:39;;;;;;;4.03;1.17;;;;;;;9.65;76.65;102093.63;5053550;28;20033;-70
2022/04/28 01:11:05;;;;;;;1.80;1.02;;;;;;;9.63;76.76;102096.66;5052743;28;20696;-70
2022/04/28 01:13:36;;;;;;;0.70;0.70;;;;;;;9.63;76.84;102096.66;5051692;28;20032;-70
2022/04/28 01:16:13;;;;;;;2.78;1.38;;;;;;;9.58;76.41;102093.31;5034951;28;20560;-70
2022/04/28 01:18:39;;;;;;;0.95;0.60;;;;;;;9.55;76.48;102105.47;5030385;28;20402;-70
2022/04/28 01:21:06;;;;;;;0.93;0.75;;;;;;;9.53;76.80;102090.75;5032456;28;20021;-69
2022/04/28 01:23:34;;;;;;;1.95;1.50;;;;;;;9.48;76.72;102101.66;5045181;28;20456;-69
2022/04/28 01:26:00;;;;;;;0.85;0.70;;;;;;;9.43;77.00;102091.03;5034506;28;20040;-69
2022/04/28 01:28:31;;;;;;;1.20;1.00;;;;;;;9.40;77.40;102091.66;5035100;28;20698;-69
2022/04/28 01:30:59;;;;;;;0.75;0.75;;;;;;;9.38;77.08;102085.78;5034916;28;20072;-69
2022/04/28 01:33:27;;;;;;;1.83;1.10;;;;;;;9.34;77.20;102091.00;5032609;28;20044;-69
2022/04/28 01:35:52;;;;;;;2.13;1.02;;;;;;;9.29;78.10;102095.72;5038894;28;20486;-69
2022/04/28 01:38:18;;;;;;;2.83;1.27;;;;;;;9.26;78.25;102090.97;5043284;28;20507;-69
2022/04/28 01:40:44;;;;;;;1.75;1.23;;;;;;;9.21;77.97;102091.09;5045111;28;20108;-69
2022/04/28 01:43:10;;;;;;;1.08;0.80;;;;;;;9.18;78.42;102097.88;5035440;28;20029;-69
2022/04/28 01:45:35;;;;;;;0.85;0.60;;;;;;;9.08;78.49;102098.16;5035008;28;20409;-69
2022/04/28 01:48:14;;;;;;;1.40;0.88;;;;;;;9.07;78.52;102102.75;5028391;28;20116;-70
2022/04/28 01:56:54;;;;;;;0.88;0.88;;;;;;;8.99;78.77;102108.06;5041689;28;20040;-69
2022/04/28 01:59:38;;;;;;;4.53;0.88;;;;;;;8.94;78.65;102100.91;5046714;28;20044;-70
2022/04/28 02:02:09;;;;;;;3.25;0.77;;;;;;;8.89;79.03;102095.69;5049647;28;20505;-69
2022/04/28 02:04:34;;;;;;;1.05;0.88;;;;;;;8.86;78.40;102098.19;5020121;28;20112;-69
2022/04/28 02:07:01;;;;;;;1.38;0.82;;;;;;;8.91;78.60;102096.16;5037046;28;20039;-69
2022/04/28 02:09:26;;;;;;;1.58;0.82;;;;;;;8.86;78.47;102099.00;5054657;28;20032;-69
2022/04/28 02:11:53;;;;;;;1.05;0.75;;;;;;;8.81;79.33;102091.06;5033214;28;20442;-69
2022/04/28 02:14:36;;;;;;;1.02;0.98;;;;;;;8.81;79.23;102091.06;5033888;28;20043;-70
2022/04/28 02:17:26;;;;;;;4.18;1.45;;;;;;;8.81;78.45;102098.31;5030436;28;20041;-69
2022/04/28 02:19:52;;;;;;;2.38;1.35;;;;;;;8.74;78.78;102088.00;5048559;28;20560;-69
2022/04/28 02:22:18;;;;;;;0.90;0.90;;;;;;;8.68;79.21;102086.56;5052257;28;20033;-70
2022/04/28 02:24:44;;;;;;;1.10;0.73;;;;;;;8.64;79.81;102080.19;5050209;28;20029;-69
2022/04/28 02:27:11;;;;;;;3.00;1.73;;;;;;;8.65;79.35;102087.16;5041113;28;20029;-70
2022/04/28 02:29:37;;;;;;;0.50;0.50;;;;;;;8.62;79.85;102086.97;5030435;28;20036;-69
2022/04/28 02:32:03;;;;;;;0.60;0.60;;;;;;;8.59;80.05;102083.03;5047403;28;20530;-69
2022/04/28 02:34:29;;;;;;;0.85;0.80;;;;;;;8.56;79.95;102082.81;5023853;28;20029;-70
2022/04/28 02:36:56;;;;;;;1.67;0.98;;;;;;;8.48;79.99;102087.03;5047637;28;20033;-70
2022/04/28 02:39:22;;;;;;;0.60;0.60;;;;;;;8.47;80.20;102090.81;5034643;28;20509;-70
2022/04/28 02:41:50;;;;;;;0.55;0.55;;;;;;;8.45;79.75;102086.84;5050113;28;20029;-69
2022/04/28 02:44:16;;;;;;;5.55;1.00;;;;;;;8.47;80.30;102087.34;5050759;28;20516;-69
2022/04/28 02:46:50;;;;;;;1.65;0.82;;;;;;;8.46;80.19;102088.47;5032864;28;20033;-70
2022/04/28 02:49:22;;;;;;;3.65;1.02;;;;;;;8.37;80.43;102088.38;5042098;28;20036;-69
2022/04/28 02:51:49;;;;;;;5.35;0.77;;;;;;;8.32;81.04;102085.81;5033776;28;20459;-72
2022/04/28 02:54:14;;;;;;;0.73;0.73;;;;;;;8.34;80.87;102091.69;5110118;22;20484;-68
2022/04/28 02:56:48;;;;;;;3.00;0.82;;;;;;;8.33;81.21;102083.91;5069219;28;20036;-68
2022/04/28 02:59:13;;;;;;;1.67;0.80;;;;;;;8.28;80.78;102092.09;5078543;28;20039;-67
2022/04/28 03:01:39;;;;;;;0.93;0.75;;;;;;;8.29;81.02;102083.72;5087271;28;20380;-68
2022/04/28 03:04:06;;;;;;;1.10;0.77;;;;;;;8.22;80.98;102077.97;5072840;28;20201;-68
2022/04/28 03:12:00;;;;;;;1.05;0.95;;;;;;;8.13;81.13;102088.63;5079703;28;20067;-68
2022/04/28 03:14:26;;;;;;;1.02;0.60;;;;;;;8.12;81.32;102095.09;5073022;28;20063;-68
2022/04/28 03:16:52;;;;;;;0.60;0.60;;;;;;;8.10;81.13;102089.22;5058290;28;20060;-68
2022/04/28 03:19:18;;;;;;;1.30;1.02;;;;;;;8.04;81.35;102087.75;5055761;28;20043;-68
2022/04/28 03:21:44;;;;;;;3.72;0.85;;;;;;;8.02;81.75;102086.47;5065288;28;20035;-68
2022/04/28 03:24:10;;;;;;;0.45;0.45;;;;;;;7.99;81.57;102087.06;5064710;28;20032;-68
2022/04/28 03:26:38;;;;;;;1.00;0.80;;;;;;;7.98;81.62;102086.28;5054042;28;20032;-68
2022/04/28 03:29:07;;;;;;;1.17;0.73;;;;;;;7.96;81.74;102079.63;5059648;28;20044;-67
2022/04/28 03:31:32;;;;;;;1.35;0.80;;;;;;;7.94;81.89;102082.59;5052537;28;20169;-68
2022/04/28 03:34:27;;;;;;;1.10;1.08;;;;;;;7.89;82.07;102084.59;4991839;28;20053;-68
2022/04/28 03:36:52;;;;;;;1.52;0.73;;;;;;;7.90;82.55;102083.50;5067787;28;20385;-68
2022/04/28 03:39:35;;;;;;;1.20;0.90;;;;;;;7.81;82.68;102080.75;5040118;28;20036;-69
2022/04/28 03:42:00;;;;;;;11.05;1.20;;;;;;;7.84;81.97;102087.41;5052159;28;20048;-67
2022/04/28 03:44:26;;;;;;;0.25;0.25;;;;;;;7.81;81.96;102085.31;5045582;28;20025;-68
2022/04/28 03:46:51;;;;;;;6.50;1.30;;;;;;;7.79;82.13;102085.63;5043075;28;20601;-68
2022/04/28 03:49:17;;;;;;;2.30;0.75;;;;;;;7.79;82.24;102090.19;5047677;28;20035;-67
2022/04/28 03:51:43;;;;;;;1.15;1.05;;;;;;;7.78;82.04;102092.06;5077383;28;20025;-67
2022/04/28 03:54:09;;;;;;;0.85;0.85;;;;;;;7.72;82.37;102089.81;5018008;28;20035;-67
2022/04/28 03:56:36;;;;;;;0.73;0.68;;;;;;;7.71;82.67;102089.00;5046197;28;20047;-67
2022/04/28 03:59:06;;;;;;;1.20;0.57;;;;;;;7.73;82.65;102094.06;5080145;28;20488;-68
2022/04/28 04:01:51;;;;;;;0.63;0.63;;;;;;;7.69;82.90;102096.53;5035401;28;20141;-67
2022/04/28 04:04:16;;;;;;;1.05;1.00;;;;;;;7.71;83.18;102090.88;5040541;28;20043;-67
2022/04/28 04:06:47;;;;;;;0.95;0.73;;;;;;;7.68;83.24;102094.16;5049376;28;20033;-67
2022/04/28 04:09:45;;;;;;;2.63;0.82;;;;;;;7.65;83.16;102105.47;5044600;28;20051;-68
2022/04/28 04:12:18;;;;;;;2.08;0.98;;;;;;;7.62;83.18;102101.53;5048053;28;20045;-69
2022/04/28 04:15:04;;;;;;;1.52;0.75;;;;;;;7.63;83.54;102105.78;5067752;28;20051;-67
2022/04/28 04:17:49;;;;;;;2.47;0.70;;;;;;;7.64;83.45;102104.72;5059219;28;20040;-67
2022/04/28 04:20:15;;;;;;;1.83;0.50;;;;;;;7.64;83.48;102106.59;5054782;28;20081;-67
2022/04/28 04:22:42;;;;;;;3.47;1.17;;;;;;;7.61;83.75;102104.47;5056819;28;20064;-68
2022/04/28 04:25:08;;;;;;;1.35;0.90;;;;;;;7.64;83.52;102114.63;5030143;28;20037;-67
2022/04/28 04:27:34;;;;;;;0.93;0.60;;;;;;;7.66;83.80;102109.75;5046220;28;20032;-68
2022/04/28 04:32:55;;;;;;;1.35;1.15;;;;;;;7.65;84.05;102111.63;5039971;28;20578;-67
2022/04/28 04:35:25;;;;;;;6.35;2.00;;;;;;;7.68;84.18;102120.97;5051111;28;20036;-67
2022/04/28 04:37:54;;;;;;;2.05;1.20;;;;;;;7.72;83.98;102121.97;5051468;28;21031;-68
2022/04/28 04:40:23;;;;;;;0.57;0.57;;;;;;;7.72;84.27;102124.66;5058759;28;20115;-68
2022/04/28 04:42:49;;;;;;;1.23;1.00;;;;;;;7.74;83.83;102120.56;5052504;28;20571;-67
2022/04/28 04:45:15;;;;;;;1.92;1.40;;;;;;;7.79;84.06;102133.09;5028474;28;20032;-67
2022/04/28 04:47:58;;;;;;;1.75;1.10;;;;;;;7.84;83.60;102124.94;5033784;28;20025;-67
2022/04/28 04:50:41;;;;;;;1.15;1.08;;;;;;;7.81;84.66;102126.34;5050066;28;20041;-67
2022/04/28 04:53:10;;;;;;;1.00;0.90;;;;;;;7.82;85.22;102133.28;5053011;28;20127;-68
2022/04/28 04:55:36;;;;;;;1.70;0.93;;;;;;;7.84;85.47;102130.31;5055222;28;20433;-67
2022/04/28 04:58:05;;;;;;;0.93;0.93;;;;;;;7.82;85.50;102132.50;5045963;28;20035;-68
2022/04/28 05:00:31;;;;;;;2.58;1.27;;;;;;;7.85;85.90;102139.94;5048646;28;20039;-67
2022/04/28 05:03:20;;;;;;;0.95;0.70;;;;;;;7.87;85.65;102141.22;5043959;28;20036;-67
2022/04/28 05:05:55;;;;;;;1.80;1.15;;;;;;;7.91;86.20;102142.22;5052897;28;20028;-69
2022/04/28 05:08:26;;;;;;;2.03;1.05;;;;;;;8.01;86.09;102146.59;5030553;28;20119;-69
2022/04/28 05:11:06;;;;;;;1.73;1.13;;;;;;;8.10;85.60;102140.22;5043948;28;20022;-69
2022/04/28 05:13:32;;;;;;;1.20;1.10;;;;;;;8.17;85.88;102147.81;5047402;28;22011;-69
2022/04/28 05:16:01;;;;;;;3.75;1.63;;;;;;;8.23;85.91;102150.09;5049331;28;20047;-69
2022/04/28 05:18:45;;;;;;;1.52;1.42;;;;;;;8.33;86.52;102153.69;5058989;28;20225;-69
2022/04/28 05:21:37;;;;;;;;;;;;;;;8.44;86.79;102152.38;5044745;28;20446;-69
2022/04/28 05:24:22;;;;;;;2.47;0.77;;;;;;;8.59;86.04;102160.88;5066034;28;20414;-69
2022/04/28 05:27:05;;;;;;;4.80;1.92;;;;;;;8.75;86.31;102161.31;5063056;28;20305;-69
2022/04/28 05:30:00;;;;;;;1.30;0.93;;;;;;;9.33;85.70;102161.22;5006764;28;20102;-69
2022/04/28 05:33:01;;;;;;;7.65;1.20;;;;;;;10.47;82.22;102163.63;4971134;28;20153;-69
2022/04/28 05:35:45;;;;;;;2.13;1.30;;;;;;;11.35;78.25;102167.44;5035155;28;20044;-69
2022/04/28 05:38:11;;;;;;;3.65;2.58;;;;;;;12.10;75.64;102175.56;5064979;28;20115;-69
2022/04/28 05:40:42;;;;;;;3.83;1.55;;;;;;;12.62;72.58;102171.34;5035658;28;20409;-69
2022/04/28 05:45:54;;;;;;;2.92;1.50;;;;;;;13.41;67.35;102178.41;5053281;28;20028;-69
2022/04/28 05:48:20;;;;;;;8.43;1.58;;;;;;;13.84;66.50;102181.38;5063452;28;20527;-69
2022/04/28 05:50:53;;;;;;;2.95;1.63;;;;;;;14.14;63.99;102182.72;5052032;28;20032;-69
2022/04/28 05:53:20;;;;;;;3.05;1.63;;;;;;;14.17;63.40;102182.03;5053153;28;20029;-70
2022/04/28 05:55:51;;;;;;;4.18;1.55;;;;;;;14.64;62.56;102181.50;5053690;28;20034;-69
2022/04/28 05:58:18;;;;;;;3.67;1.65;;;;;;;14.69;60.81;102181.28;5049656;28;20029;-69
2022/04/28 06:00:51;;;;;;;3.65;1.35;;;;;;;14.71;61.08;102179.00;5054048;28;20039;-69
2022/04/28 06:03:17;;;;;;;2.63;1.23;;;;;;;14.98;59.08;102187.13;5054344;28;20089;-69
2022/04/28 06:05:57;;;;;;;7.40;0.90;;;;;;;14.96;57.30;102197.53;5054250;28;20124;-69
2022/04/28 06:08:22;;;;;;;3.08;0.95;;;;;;;14.97;55.75;102188.25;5050197;28;20452;-69
2022/04/28 06:10:48;;;;;;;5.57;1.23;;;;;;;14.75;56.99;102177.19;5056236;28;20033;-69
2022/04/28 06:13:13;;;;;;;2.30;1.23;;;;;;;14.70;57.55;102182.84;5034214;28;20037;-69
2022/04/28 06:15:58;;;;;;;6.40;1.48;;;;;;;14.75;57.93;102188.03;5064546;28;20180;-69
2022/04/28 06:18:33;;;;;;;3.83;1.20;;;;;;;14.72;57.96;102189.50;5051385;28;20039;-69
2022/04/28 06:21:14;;;;;;;3.00;1.58;;;;;;;14.70;58.57;102182.84;5054072;28;20024;-69
2022/04/28 06:23:44;;;;;;;3.65;1.33;;;;;;;14.73;57.97;102193.78;5041480;28;20048;-69
2022/04/28 06:26:11;;;;;;;3.47;1.58;;;;;;;14.65;57.72;102196.66;5043289;28;20033;-69
2022/04/28 06:28:37;;;;;;;2.22;1.17;;;;;;;14.65;57.19;102202.88;5042361;28;20432;-69
2022/04/28 06:31:03;;;;;;;2.67;1.42;;;;;;;14.51;58.03;102199.72;5039057;28;20143;-70
2022/04/28 06:33:47;;;;;;;3.63;2.03;;;;;;;14.56;58.39;102204.09;5061667;28;20063;-69
2022/04/28 06:36:27;;;;;;;3.58;1.35;;;;;;;14.66;58.56;102201.72;5050869;28;20115;-69
2022/04/28 06:38:54;;;;;;;2.60;1.40;;;;;;;14.58;58.79;102202.63;5045445;28;20043;-69
2022/04/28 06:41:20;;;;;;;2.08;1.15;;;;;;;14.53;59.37;102202.09;5040488;28;20028;-69
2022/04/28 06:43:52;;;;;;;4.15;1.50;;;;;;;14.60;59.00;102203.09;5049275;28;20040;-69
2022/04/28 06:46:30;;;;;;;7.57;1.50;;;;;;;14.70;59.06;102204.53;5060654;28;20048;-70
2022/04/28 06:49:14;;;;;;;3.60;1.08;;;;;;;14.63;60.26;102201.63;5051521;28;20098;-70
2022/04/28 06:51:58;;;;;;;1.95;1.27;;;;;;;14.87;59.49;102204.22;5064868;28;20033;-70
2022/04/28 06:54:42;;;;;;;0.95;0.75;;;;;;;14.83;59.42;102201.44;5058818;28;20055;-69
2022/04/28 06:57:09;;;;;;;6.10;1.48;;;;;;;14.81;59.76;102209.13;5051067;28;20094;-70
2022/04/28 06:59:37;;;;;;;7.32;1.92;;;;;;;14.85;59.22;102211.94;5043720;28;20082;-70
2022/04/28 07:02:05;;;;;;;5.43;1.40;;;;;;;14.97;59.88;102217.31;5051675;28;20558;-70
2022/04/28 07:04:32;;;;;;;6.43;1.00;;;;;;;15.01;59.53;102215.50;5050368;28;20052;-70
2022/04/28 07:06:58;;;;;;;1.20;1.05;;;;;;;15.10;58.28;102210.69;5033204;28;20032;-70
2022/04/28 07:09:24;;;;;;;1.85;0.68;;;;;;;15.16;58.58;102209.31;5050706;28;20400;-69
2022/04/28 07:11:50;;;;;;;2.58;1.20;;;;;;;15.27;58.15;102213.88;5061934;28;20028;-69
2022/04/28 07:14:34;;;;;;;1.58;0.90;;;;;;;15.18;58.75;102220.59;5072611;28;20093;-69
2022/04/28 07:17:18;;;;;;;1.48;0.80;;;;;;;15.30;57.46;102217.84;5070083;28;20105;-69
2022/04/28 07:19:53;;;;;;;1.65;0.77;;;;;;;15.47;56.39;102228.41;5036959;28;20052;-70
2022/04/28 07:22:18;;;;;;;1.83;1.17;;;;;;;15.52;56.83;102228.16;5044288;28;20028;-69
2022/04/28 07:24:44;;;;;;;1.38;1.08;;;;;;;15.59;57.01;102228.31;5047474;28;20036;-69
2022/04/28 07:27:11;;;;;;;3.97;1.30;;;;;;;15.73;57.23;102231.41;5061315;28;20039;-70
2022/04/28 07:29:36;;;;;;;1.40;1.10;;;;;;;16.02;55.68;102233.66;5044365;28;20033;-70
2022/04/28 07:32:28;;;;;;;0.95;0.90;;;;;;;15.90;55.13;102231.03;5062201;28;20049;-70
2022/04/28 07:35:11;;;;;;;7.07;1.50;;;;;;;15.85;54.36;102230.53;5072773;28;20051;-70
2022/04/28 07:37:55;;;;;;;4.93;1.05;;;;;;;15.65;55.27;102231.56;5064531;28;20060;-70
2022/04/28 07:40:33;;;;;;;0.82;0.68;;;;;;;16.05;55.58;102235.66;5064393;28;20102;-68
2022/04/28 07:43:03;;;;;;;5.10;0.80;;;;;;;16.07;54.81;102240.75;5050192;28;20029;-69
2022/04/28 07:45:30;;;;;;;1.75;1.00;;;;;;;16.01;54.16;102244.88;5050209;28;20031;-69
2022/04/28 07:47:57;;;;;;;2.00;1.02;;;;;;;16.06;53.38;102242.69;5058583;28;20089;-69
2022/04/28 07:50:24;;;;;;;4.57;1.05;;;;;;;16.01;53.83;102242.16;5051372;28;20025;-69
2022/04/28 07:52:54;;;;;;;0.88;0.80;;;;;;;16.02;53.84;102249.97;5048555;28;20070;-69
2022/04/28 07:55:20;;;;;;;0.70;0.65;;;;;;;16.36;53.02;102258.50;5033303;28;20117;-69
2022/04/28 07:57:49;;;;;;;1.92;0.70;;;;;;;16.23;52.09;102245.03;5043319;28;20064;-69
2022/04/28 08:00:23;;;;;;;1.00;0.80;;;;;;;16.30;53.49;102251.78;5039865;28;20032;-69
2022/04/28 08:02:53;;;;;;;4.25;0.80;;;;;;;16.35;53.07;102254.22;5055325;28;20028;-69
2022/04/28 08:05:23;;;;;;;1.20;0.80;;;;;;;16.34;53.07;102247.22;5052641;28;20029;-69
2022/04/28 08:07:49;;;;;;;2.50;0.77;;;;;;;16.48;53.54;102251.06;5051056;28;20040;-69
2022/04/28 08:10:14;;;;;;;3.17;1.67;;;;;;;16.72;52.89;102252.75;5051711;28;20489;-69
2022/04/28 08:12:40;;;;;;;3.42;0.60;;;;;;;17.04;52.33;102241.38;5052202;28;20132;-69
2022/04/28 08:15:24;;;;;;;4.97;1.23;;;;;;;17.12;51.69;102248.53;5068267;28;20052;-68
2022/04/28 08:17:50;;;;;;;2.85;0.98;;;;;;;17.39;50.41;102243.16;5045534;28;20041;-69
2022/04/28 08:20:16;;;;;;;0.73;0.57;;;;;;;17.23;51.09;102251.44;5048172;28;20017;-69
2022/04/28 08:22:41;;;;;;;0.75;0.75;;;;;;;17.30;50.59;102250.78;5053342;28;20024;-69
2022/04/28 08:25:08;;;;;;;1.80;0.75;;;;;;;17.49;50.10;102254.31;5065999;28;20032;-69
2022/04/28 08:27:34;;;;;;;0.80;0.68;;;;;;;17.36;50.83;102261.03;5053298;28;20043;-69
2022/04/28 08:29:59;;;;;;;2.53;1.20;;;;;;;17.39;50.46;102260.31;5054540;28;20573;-69
2022/04/28 08:32:25;;;;;;;0.60;0.60;;;;;;;17.59;50.37;102259.16;5069864;28;20448;-69
2022/04/28 08:34:50;;;;;;;1.42;0.73;;;;;;;18.04;49.04;102261.84;5043061;28;20036;-69
2022/04/28 08:37:16;;;;;;;1.38;0.88;;;;;;;18.07;48.60;102263.06;5036271;28;20035;-69
2022/04/28 08:39:43;;;;;;;2.45;1.10;;;;;;;17.67;49.10;102262.78;5041458;28;20082;-69
2022/04/28 08:42:12;;;;;;;1.20;0.80;;;;;;;17.59;47.68;102258.38;5043953;28;20119;-69
2022/04/28 08:44:59;;;;;;;1.60;0.90;;;;;;;17.34;49.88;102252.44;5052496;28;20459;-69
2022/04/28 08:47:46;;;;;;;2.00;0.80;;;;;;;17.75;49.41;102261.78;5038794;28;20187;-69
2022/04/28 08:50:38;;;;;;;3.90;0.95;;;;;;;17.76;49.00;102261.41;5041274;28;20082;-69
2022/04/28 08:53:09;;;;;;;0.68;0.60;;;;;;;18.11;49.36;102254.94;5049753;28;20083;-69
2022/04/28 08:55:39;;;;;;;5.05;0.95;;;;;;;18.57;48.49;102253.69;5045745;28;20028;-69
2022/04/28 08:58:04;;;;;;;3.15;0.77;;;;;;;18.63;47.01;102257.69;5051088;28;20036;-69
2022/04/28 09:00:38;;;;;;;1.10;0.80;;;;;;;18.39;46.55;102255.38;5047429;28;20516;-69
2022/04/28 09:03:22;;;;;;;2.17;0.82;;;;;;;18.68;46.96;102262.81;5051184;28;20490;-69
2022/04/28 09:06:36;;;;;;;4.68;0.73;;;;;;;18.50;47.39;102265.31;5055305;28;20047;-68
2022/04/28 09:09:36;;;;;;;1.40;0.80;;;;;;;18.24;46.29;102257.09;5061124;28;20041;-69
2022/04/28 09:12:21;;;;;;;1.05;0.75;;;;;;;18.25;45.85;102264.16;5052570;28;20052;-69
2022/04/28 09:15:11;;;;;;;;;;;;;;;18.43;47.32;102253.50;5062771;28;20060;-70
2022/04/28 09:17:41;;;;;;;0.63;0.50;;;;;;;19.03;46.83;102267.94;5034284;28;19919;-69
2022/04/28 09:20:13;;;;;;;1.33;0.68;;;;;;;18.77;45.92;102266.06;5051317;28;20036;-70
2022/04/28 09:22:43;;;;;;;1.40;0.75;;;;;;;18.99;46.12;102256.19;5051840;28;20113;-70
2022/04/28 09:25:10;;;;;;;0.90;0.52;;;;;;;18.97;46.86;102270.19;5022185;28;20036;-69
2022/04/28 09:27:39;;;;;;;1.45;0.70;;;;;;;19.35;45.28;102255.44;5058273;28;20112;-70
2022/04/28 09:30:06;;;;;;;5.63;0.98;;;;;;;19.08;44.28;102249.28;5057658;28;20029;-70
2022/04/28 09:32:36;;;;;;;1.45;0.90;;;;;;;19.02;44.76;102250.78;5028753;28;20037;-70
2022/04/28 09:35:21;;;;;;;0.80;0.63;;;;;;;19.00;45.34;102250.34;5059143;28;20052;-70
2022/04/28 09:38:19;;;;;;;1.48;0.55;;;;;;;19.31;44.63;102258.13;5061990;28;20123;-69
2022/04/28 09:43:32;;;;;;;2.13;0.73;;;;;;;19.04;45.31;102245.72;5056341;28;20116;-69
2022/04/28 09:46:00;;;;;;;1.30;0.80;;;;;;;19.42;45.15;102255.50;5054716;28;20024;-69
2022/04/28 09:48:31;;;;;;;0.73;0.52;;;;;;;19.75;45.10;102260.91;5047611;28;20516;-70
2022/04/28 09:51:09;;;;;;;1.38;0.75;;;;;;;19.97;43.77;102256.41;5052788;28;20108;-70
2022/04/28 09:53:54;;;;;;;1.65;0.90;;;;;;;20.21;44.44;102255.84;5063012;28;20114;-69
2022/04/28 09:56:44;;;;;;;1.42;0.68;;;;;;;20.55;43.75;102257.22;5062521;28;20931;-69
2022/04/28 09:59:30;;;;;;;1.83;0.82;;;;;;;20.38;42.36;102252.44;5069969;28;20127;-69
2022/04/28 10:01:59;;;;;;;3.03;1.58;;;;;;;20.16;43.22;102247.94;5055605;28;20025;-69
2022/04/28 10:04:27;;;;;;;2.45;0.80;;;;;;;20.32;43.75;102254.75;5064837;28;20189;-70
2022/04/28 10:07:01;;;;;;;1.85;1.38;;;;;;;20.56;43.40;102242.34;5070402;28;20514;-69
2022/04/28 10:09:36;;;;;;;1.55;1.15;;;;;;;20.96;43.25;102249.56;5053993;28;20025;-70
2022/04/28 10:12:07;;;;;;;2.50;0.85;;;;;;;21.04;41.75;102257.44;5052149;28;20126;-70
2022/04/28 10:14:48;;;;;;;4.85;1.10;;;;;;;20.81;41.61;102254.19;5054065;28;20543;-70
2022/04/28 10:17:19;;;;;;;2.20;0.80;;;;;;;20.62;42.07;102246.28;5053516;28;20044;-70
2022/04/28 10:19:50;;;;;;;2.83;0.80;;;;;;;21.07;42.19;102253.94;5051152;28;20039;-69
2022/04/28 10:22:37;;;;;;;1.55;0.70;;;;;;;21.21;42.20;102248.53;5070241;28;20043;-70
2022/04/28 10:33:45;;;;;;;1.40;0.73;;;;;;;21.45;41.84;102247.75;5065784;28;20454;-70
2022/04/28 10:36:21;;;;;;;2.65;1.20;;;;;;;21.75;42.26;102252.09;5071680;28;20073;-70
2022/04/28 10:39:07;;;;;;;1.40;0.90;;;;;;;21.61;42.40;102252.09;5070741;28;20036;-69
2022/04/28 10:41:33;;;;;;;1.52;0.90;;;;;;;21.30;41.23;102245.38;5067121;28;20085;-70
2022/04/28 10:44:00;;;;;;;2.13;1.10;;;;;;;20.88;41.14;102253.47;5051084;28;20497;-69
2022/04/28 10:46:27;;;;;;;1.63;0.95;;;;;;;20.74;42.89;102248.69;5069871;28;20028;-70
2022/04/28 10:48:59;;;;;;;2.28;0.90;;;;;;;21.42;42.53;102239.53;5063398;28;20512;-70
2022/04/28 10:51:30;;;;;;;1.70;0.70;;;;;;;21.89;42.17;102249.41;5070605;28;20115;-70
2022/04/28 10:54:05;;;;;;;1.83;1.05;;;;;;;21.36;40.47;102247.38;5070903;28;20040;-70
2022/04/28 10:56:55;;;;;;;1.80;0.77;;;;;;;21.42;41.51;102234.06;5068625;28;20036;-70
2022/04/28 10:59:29;;;;;;;1.63;0.82;;;;;;;21.96;41.76;102236.47;5066384;28;20043;-70
2022/04/28 11:01:56;;;;;;;2.15;0.75;;;;;;;21.95;41.89;102229.38;5067967;28;20040;-70
2022/04/28 11:04:23;;;;;;;1.80;0.90;;;;;;;21.93;41.14;102237.22;5071044;28;20036;-70
2022/04/28 11:06:57;;;;;;;1.77;0.88;;;;;;;22.66;40.53;102229.25;5069796;28;20512;-70
2022/04/28 11:09:38;;;;;;;1.35;0.80;;;;;;;22.60;39.76;102230.84;5065318;28;20119;-70
2022/04/28 11:12:11;;;;;;;1.25;1.05;;;;;;;22.68;39.78;102227.69;5067054;28;20029;-69
2022/04/28 11:14:59;;;;;;;3.65;1.60;;;;;;;22.91;38.39;102227.97;5070119;28;20043;-70
2022/04/28 11:17:25;;;;;;;3.33;1.27;;;;;;;22.77;39.03;102225.28;5068071;28;20036;-70
2022/04/28 11:19:51;;;;;;;1.30;0.88;;;;;;;22.88;38.89;102220.50;5070974;28;20036;-70
2022/04/28 11:22:16;;;;;;;3.38;1.23;;;;;;;22.78;38.59;102217.81;5070430;28;20032;-70
2022/04/28 11:24:43;;;;;;;3.63;0.90;;;;;;;22.70;39.21;102214.34;5067072;28;20028;-70
2022/04/28 11:27:17;;;;;;;1.58;1.30;;;;;;;22.60;38.69;102206.91;5047913;28;20046;-70
2022/04/28 11:30:03;;;;;;;1.85;0.80;;;;;;;22.87;40.32;102216.22;5065784;28;20036;-71
2022/04/28 11:32:28;;;;;;;2.10;1.05;;;;;;;23.03;40.25;102219.28;5031365;28;20592;-71
2022/04/28 11:34:56;;;;;;;2.17;1.00;;;;;;;22.95;39.99;102231.47;5067536;28;20032;-70
2022/04/28 11:37:24;;;;;;;2.92;1.50;;;;;;;22.79;40.18;102225.66;5064734;28;20024;-71
2022/04/28 11:39:52;;;;;;;3.00;1.70;;;;;;;22.24;39.15;102225.41;5066578;28;20045;-71
2022/04/28 11:42:18;;;;;;;2.50;1.08;;;;;;;21.96;40.83;102222.72;5069480;28;20052;-71
2022/04/28 11:44:48;;;;;;;2.15;1.05;;;;;;;22.20;40.79;102216.41;5067794;28;20089;-71
2022/04/28 11:47:14;;;;;;;1.65;0.90;;;;;;;21.93;40.31;102222.75;5054998;28;20068;-71
2022/04/28 11:49:40;;;;;;;1.50;1.40;;;;;;;21.65;41.71;102220.75;5064610;28;20086;-71
2022/04/28 11:52:34;;;;;;;2.22;0.70;;;;;;;21.90;40.42;102223.50;5040239;28;20025;-71
2022/04/28 11:55:06;;;;;;;1.67;0.57;;;;;;;21.65;40.39;102219.97;5062505;28;20402;-71
2022/04/28 11:57:31;;;;;;;;;;;;;;;21.70;41.31;102217.59;5065860;28;20043;-71
2022/04/28 11:59:58;;;;;;;2.67;1.17;;;;;;;21.73;39.78;102216.84;5060944;28;19912;-70
2022/04/28 12:02:24;;;;;;;1.40;0.75;;;;;;;21.95;40.48;102220.38;5056237;28;20036;-71
2022/04/28 12:04:50;;;;;;;1.58;0.98;;;;;;;22.01;39.74;102224.31;5063998;28;20076;-71
2022/04/28 12:07:27;;;;;;;1.27;0.77;;;;;;;22.45;40.16;102219.88;5063493;28;20024;-71
2022/04/28 12:15:23;;;;;;;1.48;0.93;;;;;;;22.73;39.28;102218.22;5068679;28;20036;-71
2022/04/28 12:21:02;;;;;;;1.92;0.95;;;;;;;22.02;38.56;102220.38;5067235;28;20028;-71
2022/04/28 12:23:33;;;;;;;1.42;0.80;;;;;;;22.24;38.71;102219.94;5063233;28;20041;-70
2022/04/28 12:26:00;;;;;;;2.25;0.90;;;;;;;22.25;39.86;102217.97;5049850;28;20409;-70
2022/04/28 12:28:31;;;;;;;1.65;0.80;;;;;;;22.12;39.76;102217.63;5067455;28;20039;-71